createdAt,value
2023-03-20T00:01:14.178Z,48.30
2023-03-20T00:04:17.242Z,48.57
2023-03-20T00:07:19.628Z,47.93
2023-03-20T00:10:25.368Z,47.76
2023-03-20T00:13:28.550Z,48.98
2023-03-20T00:16:42.746Z,48.19
2023-03-20T00:19:45.322Z,49.02
2023-03-20T00:22:48.114Z,48.60
2023-03-20T00:25:50.521Z,48.83
2023-03-20T00:28:53.187Z,48.90
2023-03-20T00:31:55.709Z,47.99
2023-03-20T00:34:58.337Z,48.61
2023-03-20T00:38:00.782Z,48.20
2023-03-20T00:41:04.086Z,48.02
2023-03-20T00:44:26.834Z,49.07
2023-03-20T00:47:30.277Z,49.43
2023-03-20T00:50:33.567Z,48.61
2023-03-20T00:53:37.157Z,49.73
2023-03-20T00:57:01.678Z,48.95
2023-03-20T01:00:26.142Z,49.18
2023-03-20T01:03:30.143Z,47.16
2023-03-20T01:06:33.081Z,48.62
2023-03-20T01:09:35.405Z,48.23
2023-03-20T01:12:42.775Z,48.70
2023-03-20T01:15:45.158Z,48.96
2023-03-20T01:18:48.891Z,47.27
2023-03-20T01:21:51.521Z,48.55
2023-03-20T01:24:54.501Z,48.34
2023-03-20T01:27:58.112Z,49.48
2023-03-20T01:31:02.147Z,48.55
2023-03-20T01:34:06.264Z,48.77
2023-03-20T01:37:17.094Z,48.91
2023-03-20T01:40:30.414Z,49.06
2023-03-20T01:43:34.586Z,47.99
2023-03-20T01:46:38.807Z,48.83
2023-03-20T01:50:17.334Z,49.03
2023-03-20T01:53:29.634Z,48.52
2023-03-20T01:56:37.500Z,48.05
2023-03-20T01:59:51.275Z,49.10
2023-03-20T02:02:55.557Z,47.25
2023-03-20T02:05:59.939Z,47.74
2023-03-20T02:09:03.639Z,49.88
2023-03-20T02:12:07.975Z,47.63
2023-03-20T02:15:12.622Z,47.42
2023-03-20T02:18:16.500Z,49.00
2023-03-20T02:21:57.471Z,48.58
2023-03-20T02:25:15.783Z,47.67
2023-03-20T02:28:37.476Z,49.59
2023-03-20T02:32:21.850Z,49.55
2023-03-20T02:35:26.993Z,48.61
2023-03-20T02:38:39.077Z,49.49
2023-03-20T02:42:07.250Z,48.43
2023-03-20T02:45:27.159Z,48.82
2023-03-20T02:48:59.653Z,48.80
2023-03-20T02:52:40.707Z,47.96
2023-03-20T02:56:06.769Z,49.11
2023-03-20T02:59:20.871Z,48.67
2023-03-20T03:02:48.127Z,48.54
2023-03-20T03:06:23.120Z,49.02
2023-03-20T03:09:51.453Z,48.94
2023-03-20T03:12:57.576Z,47.76
2023-03-20T03:16:06.835Z,47.35
2023-03-20T03:19:16.736Z,48.16
2023-03-20T03:22:20.079Z,48.62
2023-03-20T03:25:27.087Z,47.52
2023-03-20T03:28:40.919Z,49.50
2023-03-20T03:31:45.696Z,48.20
2023-03-20T03:34:49.110Z,48.94
2023-03-20T03:38:26.706Z,48.92
2023-03-20T03:42:08.922Z,48.70
2023-03-20T03:45:17.408Z,48.91
2023-03-20T03:48:26.542Z,48.92
2023-03-20T03:51:33.352Z,48.27
2023-03-20T03:54:55.278Z,48.01
2023-03-20T03:58:07.168Z,49.29
2023-03-20T04:01:12.566Z,49.03
2023-03-20T04:04:16.812Z,49.97
2023-03-20T04:07:19.388Z,49.31
2023-03-20T04:10:22.062Z,49.50
2023-03-20T04:13:24.436Z,49.84
2023-03-20T04:16:27.273Z,49.42
2023-03-20T04:19:29.913Z,48.80
2023-03-20T04:22:34.936Z,49.10
2023-03-20T04:25:38.883Z,49.83
2023-03-20T04:28:41.655Z,50.32
2023-03-20T04:31:46.090Z,49.72
2023-03-20T04:34:49.069Z,49.21
2023-03-20T04:37:52.528Z,50.02
2023-03-20T04:40:55.357Z,49.36
2023-03-20T04:43:57.633Z,49.13
2023-03-20T04:47:00.834Z,50.06
2023-03-20T04:50:03.842Z,50.44
2023-03-20T04:53:06.802Z,49.98
2023-03-20T04:56:09.721Z,50.73
2023-03-20T04:59:13.037Z,50.46
2023-03-20T05:02:17.849Z,50.66
2023-03-20T05:05:20.793Z,50.28
2023-03-20T05:08:23.473Z,49.46
2023-03-20T05:11:29.807Z,49.92
2023-03-20T05:14:33.739Z,51.50
2023-03-20T05:17:38.137Z,50.84
2023-03-20T05:20:41.036Z,50.70
2023-03-20T05:23:44.233Z,51.79
2023-03-20T05:26:47.097Z,50.33
2023-03-20T05:29:50.447Z,50.84
2023-03-20T05:32:54.229Z,51.12
2023-03-20T05:35:57.294Z,51.11
2023-03-20T05:39:00.388Z,50.13
2023-03-20T05:42:04.941Z,50.30
2023-03-20T05:45:09.001Z,50.65
2023-03-20T05:48:14.710Z,50.70
2023-03-20T05:51:18.365Z,50.59
2023-03-20T05:54:21.824Z,50.08
2023-03-20T05:57:24.677Z,51.57
2023-03-20T06:00:30.327Z,51.00
2023-03-20T06:03:34.414Z,50.02
2023-03-20T06:06:38.094Z,51.24
2023-03-20T06:09:59.641Z,50.39
2023-03-20T06:13:02.091Z,50.96
2023-03-20T06:16:05.736Z,50.18
2023-03-20T06:19:08.220Z,50.21
2023-03-20T06:22:11.500Z,50.64
2023-03-20T06:25:14.205Z,50.01
2023-03-20T06:28:17.194Z,50.47
2023-03-20T06:31:20.772Z,50.07
2023-03-20T06:34:23.539Z,49.66
2023-03-20T06:37:26.165Z,48.70
2023-03-20T06:40:32.952Z,48.49
2023-03-20T06:43:46.048Z,48.92
2023-03-20T06:46:49.184Z,48.48
2023-03-20T06:49:51.766Z,47.63
2023-03-20T06:52:56.777Z,47.24
2023-03-20T06:56:01.202Z,47.17
2023-03-20T06:59:04.641Z,47.32
2023-03-20T07:02:08.550Z,46.87
2023-03-20T07:05:11.585Z,46.55
2023-03-20T07:08:15.199Z,46.57
2023-03-20T07:11:18.157Z,46.21
2023-03-20T07:14:21.099Z,46.22
2023-03-20T07:17:24.050Z,45.27
2023-03-20T07:20:26.732Z,45.10
2023-03-20T07:23:30.789Z,45.13
2023-03-20T07:26:33.181Z,44.82
2023-03-20T07:29:37.806Z,43.60
2023-03-20T07:32:42.644Z,43.29
2023-03-20T07:35:45.395Z,42.82
2023-03-20T07:38:48.086Z,42.94
2023-03-20T07:41:50.843Z,43.22
2023-03-20T07:44:58.654Z,41.51
2023-03-20T07:48:01.751Z,41.13
2023-03-20T07:51:04.705Z,40.75
2023-03-20T07:54:07.458Z,39.95
2023-03-20T07:57:10.908Z,40.11
2023-03-20T08:00:15.256Z,41.55
2023-03-20T08:03:17.647Z,39.80
2023-03-20T08:06:20.852Z,38.66
2023-03-20T08:09:23.313Z,37.76
2023-03-20T08:12:26.007Z,34.09
2023-03-20T08:15:28.387Z,33.47
2023-03-20T08:18:31.117Z,32.79
2023-03-20T08:21:33.937Z,31.43
2023-03-20T08:24:36.723Z,30.56
2023-03-20T08:27:39.049Z,29.56
2023-03-20T08:30:41.928Z,29.80
2023-03-20T08:33:46.093Z,32.23
2023-03-20T08:36:48.805Z,29.28
2023-03-20T08:39:51.087Z,30.13
2023-03-20T08:42:53.784Z,30.22
2023-03-20T08:45:56.226Z,30.19
2023-03-20T08:49:00.696Z,29.76
2023-03-20T08:52:03.522Z,31.20
2023-03-20T08:55:08.062Z,29.80
2023-03-20T08:58:10.367Z,30.94
2023-03-20T09:01:13.050Z,30.77
2023-03-20T09:04:15.403Z,30.66
2023-03-20T09:07:18.046Z,30.13
2023-03-20T09:10:20.523Z,29.89
2023-03-20T09:13:27.683Z,29.71
2023-03-20T09:16:30.369Z,29.63
2023-03-20T09:19:33.531Z,31.15
2023-03-20T09:22:35.907Z,29.13
2023-03-20T09:25:38.586Z,29.17
2023-03-20T09:28:41.175Z,29.90
2023-03-20T09:31:44.094Z,28.86
2023-03-20T09:34:46.692Z,28.81
2023-03-20T09:37:49.337Z,28.62
2023-03-20T09:40:53.537Z,28.27
2023-03-20T09:43:56.437Z,29.05
2023-03-20T09:47:27.517Z,28.61
2023-03-20T09:50:46.417Z,28.81
2023-03-20T09:54:02.874Z,28.66
2023-03-20T09:57:19.493Z,30.24
2023-03-20T10:00:28.350Z,28.37
2023-03-20T10:03:42.537Z,28.29
2023-03-20T10:06:44.857Z,28.48
2023-03-20T10:09:48.123Z,28.18
2023-03-20T10:13:04.041Z,28.42
2023-03-20T10:16:52.280Z,29.16
2023-03-20T10:20:04.067Z,28.78
2023-03-20T10:23:25.043Z,28.74
2023-03-20T10:26:29.213Z,28.28
2023-03-20T10:29:31.809Z,28.81
2023-03-20T10:32:44.209Z,28.40
2023-03-20T10:36:05.572Z,29.08
2023-03-20T10:39:27.178Z,28.64
2023-03-20T10:42:41.249Z,29.21
2023-03-20T10:45:46.297Z,28.68
2023-03-20T10:49:18.178Z,29.08
2023-03-20T10:52:28.178Z,28.50
2023-03-20T10:55:36.868Z,28.68
2023-03-20T10:58:41.787Z,28.42
2023-03-20T11:01:44.456Z,28.65
2023-03-20T11:04:47.374Z,30.50
2023-03-20T11:07:59.939Z,30.87
2023-03-20T11:11:03.998Z,30.01
2023-03-20T11:14:18.823Z,30.00
2023-03-20T11:17:22.215Z,30.17
2023-03-20T11:20:26.914Z,29.33
2023-03-20T11:23:34.464Z,29.60
2023-03-20T11:26:42.844Z,31.26
2023-03-20T11:29:49.221Z,32.51
2023-03-20T11:32:56.293Z,31.13
2023-03-20T11:36:00.250Z,32.04
2023-03-20T11:39:11.963Z,30.19
2023-03-20T11:42:24.901Z,30.13
2023-03-20T11:45:34.613Z,30.07
2023-03-20T11:48:39.830Z,30.83
2023-03-20T11:51:42.482Z,30.24
2023-03-20T11:54:48.531Z,30.58
2023-03-20T11:57:51.261Z,30.23
2023-03-20T12:00:55.443Z,30.54
2023-03-20T12:03:58.025Z,30.00
2023-03-20T12:07:12.844Z,30.04
2023-03-20T12:10:15.995Z,29.64
2023-03-20T12:13:25.508Z,29.39
2023-03-20T12:16:30.602Z,30.38
2023-03-20T12:19:34.262Z,29.91
2023-03-20T12:22:58.150Z,29.57
2023-03-20T12:26:13.028Z,29.19
2023-03-20T12:30:06.950Z,28.97
2023-03-20T12:33:34.610Z,29.06
2023-03-20T12:36:48.303Z,29.27
2023-03-20T12:40:00.840Z,31.58
2023-03-20T12:43:19.141Z,29.64
2023-03-20T12:46:57.144Z,30.36
2023-03-20T12:50:25.045Z,30.30
2023-03-20T12:53:50.587Z,31.46
2023-03-20T12:57:14.503Z,29.79
2023-03-20T13:00:35.347Z,29.37
2023-03-20T13:03:46.856Z,29.25
2023-03-20T13:06:59.725Z,29.54
2023-03-20T13:10:18.578Z,29.37
2023-03-20T13:13:37.732Z,29.39
2023-03-20T13:16:52.811Z,30.21
2023-03-20T13:20:17.490Z,29.54
2023-03-20T13:23:43.255Z,29.63
2023-03-20T13:26:53.208Z,29.84
2023-03-20T13:30:36.176Z,29.42
2023-03-20T13:33:56.362Z,30.16
2023-03-20T13:37:16.014Z,29.90
2023-03-20T13:40:33.803Z,30.98
2023-03-20T13:44:03.594Z,31.40
2023-03-20T13:47:16.214Z,30.01
2023-03-20T13:51:05.469Z,30.27
2023-03-20T13:54:07.705Z,30.46
2023-03-20T13:57:38.376Z,30.83
2023-03-20T14:00:56.426Z,31.47
2023-03-20T14:04:00.840Z,31.17
2023-03-20T14:07:30.372Z,31.25
2023-03-20T14:10:35.153Z,31.15
2023-03-20T14:13:38.165Z,31.94
2023-03-20T14:16:41.801Z,32.36
2023-03-20T14:19:45.226Z,31.61
2023-03-20T14:22:49.144Z,32.42
2023-03-20T14:25:54.931Z,32.05
2023-03-20T14:29:28.473Z,32.09
2023-03-20T14:32:35.330Z,32.48
2023-03-20T14:35:42.673Z,32.77
2023-03-20T14:38:55.655Z,33.27
2023-03-20T14:42:19.551Z,33.63
2023-03-20T14:45:42.531Z,33.44
2023-03-20T14:48:50.621Z,34.46
2023-03-20T14:52:12.568Z,33.96
2023-03-20T14:55:18.301Z,34.04
2023-03-20T14:58:49.159Z,34.32
2023-03-20T15:02:02.920Z,35.17
2023-03-20T15:05:06.226Z,35.37
2023-03-20T15:08:22.887Z,34.72
2023-03-20T15:11:26.195Z,35.93
2023-03-20T15:14:31.454Z,34.92
2023-03-20T15:17:45.556Z,35.16
2023-03-20T15:20:49.425Z,35.54
2023-03-20T15:23:51.737Z,36.29
2023-03-20T15:27:04.785Z,35.82
2023-03-20T15:30:07.828Z,37.08
2023-03-20T15:33:28.765Z,36.55
2023-03-20T15:36:36.942Z,37.70
2023-03-20T15:39:48.196Z,36.75
2023-03-20T15:43:03.980Z,37.32
2023-03-20T15:46:17.931Z,37.25
2023-03-20T15:49:22.002Z,37.12
2023-03-20T15:52:43.845Z,37.65
2023-03-20T15:56:14.841Z,37.84
2023-03-20T15:59:25.684Z,38.10
2023-03-20T16:02:30.628Z,38.26
2023-03-20T16:05:35.038Z,38.52
2023-03-20T16:08:39.161Z,38.41
2023-03-20T16:11:45.043Z,39.39
2023-03-20T16:14:49.977Z,39.42
2023-03-20T16:17:56.416Z,39.31
2023-03-20T16:21:03.813Z,40.57
2023-03-20T16:24:16.055Z,41.64
2023-03-20T16:27:24.804Z,40.37
2023-03-20T16:30:31.706Z,40.64
2023-03-20T16:33:34.641Z,40.48
2023-03-20T16:36:38.907Z,42.38
2023-03-20T16:39:41.336Z,42.74
2023-03-20T16:42:44.861Z,41.20
2023-03-20T16:45:55.466Z,41.91
2023-03-20T16:49:08.177Z,41.36
2023-03-20T16:52:14.933Z,41.88
2023-03-20T16:55:42.411Z,53.44
2023-03-20T16:58:46.043Z,57.19
2023-03-20T17:01:49.456Z,64.94
2023-03-20T17:04:56.433Z,65.96
2023-03-20T17:08:04.851Z,65.90
2023-03-20T17:11:14.551Z,63.40
2023-03-20T17:14:17.606Z,58.53
2023-03-20T17:17:22.446Z,57.40
2023-03-20T17:20:27.999Z,62.86
2023-03-20T17:23:31.252Z,54.23
2023-03-20T17:26:33.998Z,56.49
2023-03-20T17:29:36.315Z,55.46
2023-03-20T17:32:39.042Z,60.50
2023-03-20T17:35:42.422Z,53.84
2023-03-20T17:38:45.285Z,54.27
2023-03-20T17:41:47.779Z,54.06
2023-03-20T17:44:50.758Z,50.80
2023-03-20T17:47:54.127Z,49.90
2023-03-20T17:50:56.780Z,55.76
2023-03-20T17:53:59.388Z,52.92
2023-03-20T17:57:02.026Z,57.80
2023-03-20T18:00:17.153Z,57.85
2023-03-20T18:03:19.886Z,53.20
2023-03-20T18:06:28.251Z,58.92
2023-03-20T18:09:31.181Z,56.33
2023-03-20T18:12:34.573Z,52.13
2023-03-20T18:15:40.251Z,50.31
2023-03-20T18:18:43.354Z,54.04
2023-03-20T18:21:46.008Z,56.22
2023-03-20T18:24:48.534Z,52.87
2023-03-20T18:27:51.330Z,53.36
2023-03-20T18:30:53.661Z,51.02
2023-03-20T18:33:56.299Z,50.82
2023-03-20T18:36:58.653Z,49.98
2023-03-20T18:40:01.329Z,49.38
2023-03-20T18:43:04.107Z,52.12
2023-03-20T18:46:11.790Z,50.22
2023-03-20T18:49:16.374Z,51.30
2023-03-20T18:52:18.950Z,55.11
2023-03-20T18:55:23.200Z,52.82
2023-03-20T18:58:28.086Z,57.11
2023-03-20T19:01:30.449Z,51.80
2023-03-20T19:04:35.065Z,54.74
2023-03-20T19:07:37.341Z,52.98
2023-03-20T19:10:43.869Z,51.03
2023-03-20T19:13:49.712Z,50.16
2023-03-20T19:16:53.505Z,51.57
2023-03-20T19:19:55.823Z,53.03
2023-03-20T19:22:58.436Z,50.77
2023-03-20T19:26:01.682Z,55.27
2023-03-20T19:29:10.544Z,54.02
2023-03-20T19:32:13.100Z,54.33
2023-03-20T19:35:54.026Z,55.13
2023-03-20T19:38:38.276Z,54.25
2023-03-20T19:41:40.969Z,55.21
2023-03-20T19:44:43.307Z,55.45
2023-03-20T19:47:45.958Z,55.14
2023-03-20T19:50:51.141Z,56.47
2023-03-20T19:53:54.504Z,55.07
2023-03-20T19:56:56.815Z,55.14
2023-03-20T20:00:43.857Z,56.29
2023-03-20T20:03:25.059Z,55.80
2023-03-20T20:06:31.145Z,55.71
2023-03-20T20:09:34.190Z,53.28
2023-03-20T20:12:38.978Z,55.72
2023-03-20T20:15:41.728Z,54.40
2023-03-20T20:18:44.076Z,55.40
2023-03-20T20:25:11.857Z,56.91
2023-03-20T20:28:17.644Z,57.17
2023-03-20T20:31:28.326Z,56.45
2023-03-20T20:41:18.702Z,56.45
2023-03-20T20:44:21.048Z,56.43
2023-03-20T20:47:23.765Z,56.17
2023-03-20T20:50:29.127Z,57.04
2023-03-20T20:53:31.977Z,56.44
2023-03-20T20:56:34.748Z,57.93
2023-03-20T20:59:38.135Z,56.24
2023-03-20T21:02:40.738Z,57.51
2023-03-20T21:05:43.631Z,57.10
2023-03-20T21:08:46.022Z,57.72
2023-03-20T21:11:48.777Z,57.58
2023-03-20T21:14:51.402Z,57.11
2023-03-20T21:18:01.172Z,57.51
2023-03-20T21:21:09.270Z,57.17
2023-03-20T21:24:31.146Z,57.58
2023-03-20T21:27:34.473Z,57.82
2023-03-20T21:30:44.105Z,58.65
2023-03-20T21:33:54.155Z,56.98
2023-03-20T21:36:58.753Z,57.40
2023-03-20T21:40:08.835Z,59.08
2023-03-20T21:43:12.233Z,57.15
2023-03-20T21:46:49.595Z,58.46
2023-03-20T21:50:31.199Z,58.76
2023-03-20T21:53:46.193Z,58.63
2023-03-20T21:57:04.990Z,59.59
2023-03-20T22:00:20.153Z,59.96
2023-03-20T22:03:12.404Z,57.60
2023-03-20T22:14:08.981Z,58.42
2023-03-20T22:17:31.367Z,59.49
2023-03-20T22:24:05.588Z,59.04
2023-03-20T22:30:56.110Z,59.21
2023-03-20T22:46:59.923Z,57.92
2023-03-20T22:50:02.577Z,59.42
2023-03-20T22:53:05.258Z,59.37
2023-03-20T22:56:08.208Z,58.83
2023-03-20T22:59:10.822Z,58.86
2023-03-20T23:02:15.824Z,58.69
2023-03-20T23:05:18.719Z,58.37
2023-03-20T23:08:24.829Z,58.48
2023-03-20T23:11:28.047Z,58.10
2023-03-20T23:14:36.286Z,60.31
2023-03-20T23:17:46.027Z,58.07
2023-03-20T23:20:48.382Z,60.04
2023-03-20T23:23:51.074Z,60.80
2023-03-20T23:26:55.112Z,59.02
2023-03-20T23:29:57.884Z,59.39
2023-03-20T23:33:00.435Z,58.55
2023-03-20T23:36:16.140Z,58.91
2023-03-20T23:39:21.314Z,59.02
2023-03-20T23:42:30.306Z,60.50
2023-03-20T23:45:33.287Z,59.93
2023-03-20T23:48:36.455Z,59.94
2023-03-20T23:51:38.829Z,59.60
2023-03-20T23:54:41.749Z,59.61
2023-03-20T23:57:44.168Z,59.65
